createdAt,value
2019-05-18T00:00:41.515Z,61.2
2019-05-18T00:05:47.811Z,61.32
2019-05-18T00:10:48.998Z,61.84
2019-05-18T00:15:48.800Z,61.31
2019-05-18T00:20:49.591Z,61.86
2019-05-18T00:25:48.958Z,63.44
2019-05-18T00:30:49.219Z,64.67
2019-05-18T00:35:49.129Z,65.68
2019-05-18T00:40:49.163Z,64.34
2019-05-18T00:45:49.308Z,63.32
2019-05-18T00:50:49.339Z,62.46
2019-05-18T00:55:49.475Z,62.62
2019-05-18T01:00:55.979Z,63.68
2019-05-18T01:05:55.867Z,63.53
2019-05-18T01:10:55.895Z,63.17
2019-05-18T01:15:56.010Z,62.86
2019-05-18T01:20:56.435Z,62.55
2019-05-18T01:25:56.438Z,63.19
2019-05-18T01:30:56.476Z,63.49
2019-05-18T01:35:56.614Z,62.46
2019-05-18T01:40:56.651Z,63.05
2019-05-18T01:45:56.926Z,63.53
2019-05-18T01:50:56.786Z,63.06
2019-05-18T01:56:03.422Z,62.77
2019-05-18T02:01:04.202Z,62.37
2019-05-18T02:06:04.210Z,62.2
2019-05-18T02:11:04.325Z,62.75
2019-05-18T02:16:04.441Z,62.7
2019-05-18T02:21:04.484Z,63.07
2019-05-18T02:26:04.493Z,61.83
2019-05-18T02:31:04.618Z,63.8
2019-05-18T02:36:04.663Z,63.0
2019-05-18T02:41:04.699Z,62.45
2019-05-18T02:46:04.815Z,61.7
2019-05-18T02:51:12.230Z,62.22
2019-05-18T02:56:11.366Z,61.71
2019-05-18T03:01:11.489Z,61.42
2019-05-18T03:06:11.554Z,63.18
2019-05-18T03:11:11.596Z,62.41
2019-05-18T03:16:11.739Z,61.79
2019-05-18T03:21:11.746Z,61.8
2019-05-18T03:26:11.867Z,62.13
2019-05-18T03:31:11.904Z,61.92
2019-05-18T03:36:11.952Z,62.73
2019-05-18T03:41:11.981Z,62.24
2019-05-18T03:46:16.343Z,62.89
2019-05-18T03:51:17.323Z,62.44
2019-05-18T03:56:17.329Z,62.02
2019-05-18T04:01:17.586Z,62.69
2019-05-18T04:06:17.591Z,62.28
2019-05-18T04:11:17.629Z,62.68
2019-05-18T04:16:17.669Z,62.87
2019-05-18T04:21:17.705Z,62.69
2019-05-18T04:26:18.094Z,62.53
2019-05-18T04:31:18.053Z,63.75
2019-05-18T04:36:18.330Z,62.96
2019-05-18T04:41:25.019Z,63.14
2019-05-18T04:46:25.278Z,63.42
2019-05-18T04:51:25.522Z,63.48
2019-05-18T04:56:25.879Z,63.17
2019-05-18T05:01:25.487Z,62.94
2019-05-18T05:06:25.629Z,63.53
2019-05-18T05:11:25.664Z,63.87
2019-05-18T05:16:25.670Z,63.57
2019-05-18T05:21:25.847Z,64.11
2019-05-18T05:26:25.851Z,63.76
2019-05-18T05:31:26.359Z,64.75
2019-05-18T05:36:30.499Z,64.38
2019-05-18T05:41:30.519Z,63.8
2019-05-18T05:46:30.636Z,64.17
2019-05-18T05:51:31.579Z,63.5
2019-05-18T05:56:31.614Z,63.53
2019-05-18T06:01:31.652Z,63.52
2019-05-18T06:06:31.802Z,63.24
2019-05-18T06:11:31.878Z,63.96
2019-05-18T06:16:31.887Z,63.12
2019-05-18T06:21:32.070Z,63.87
2019-05-18T06:26:32.058Z,63.04
2019-05-18T06:31:38.748Z,62.98
2019-05-18T06:36:38.785Z,62.46
2019-05-18T06:41:38.851Z,63.11
2019-05-18T06:46:38.888Z,62.74
2019-05-18T06:51:39.002Z,61.97
2019-05-18T06:56:39.031Z,62.02
2019-05-18T07:01:39.076Z,62.19
2019-05-18T07:06:39.198Z,61.75
2019-05-18T07:11:39.386Z,63.27
2019-05-18T07:16:39.739Z,61.37
2019-05-18T07:21:39.678Z,60.89
2019-05-18T07:26:45.995Z,61.79
2019-05-18T07:31:46.032Z,60.37
2019-05-18T07:36:46.961Z,59.45
2019-05-18T07:41:47.664Z,60.64
2019-05-18T07:46:47.119Z,59.39
2019-05-18T07:51:47.151Z,58.4
2019-05-18T07:56:47.229Z,57.58
2019-05-18T08:01:47.283Z,57.71
2019-05-18T08:06:47.322Z,59.49
2019-05-18T08:11:47.447Z,58.54
2019-05-18T08:16:47.563Z,58.41
2019-05-18T08:21:54.146Z,57.63
2019-05-18T08:26:54.514Z,58.3
2019-05-18T08:31:54.548Z,56.74
2019-05-18T08:36:54.691Z,58.09
2019-05-18T08:41:54.723Z,56.27
2019-05-18T08:46:54.763Z,54.67
2019-05-18T08:52:08.779Z,54.84
2019-05-18T08:56:54.971Z,54.19
2019-05-18T09:01:55.008Z,56.05
2019-05-18T09:06:55.145Z,53.31
2019-05-18T09:11:55.191Z,55.22
2019-05-18T09:17:01.539Z,55.45
2019-05-18T09:22:01.734Z,54.85
2019-05-18T09:27:01.758Z,55.02
2019-05-18T09:32:01.790Z,52.63
2019-05-18T09:37:01.941Z,52.39
2019-05-18T09:42:02.130Z,50.34
2019-05-18T09:47:02.129Z,51.01
2019-05-18T09:52:02.591Z,53.33
2019-05-18T09:57:02.493Z,51.87
2019-05-18T10:02:02.534Z,51.77
2019-05-18T10:07:02.574Z,52.8
2019-05-18T10:12:09.014Z,49.33
2019-05-18T10:17:08.985Z,51.73
2019-05-18T10:22:09.018Z,50.99
2019-05-18T10:27:09.096Z,48.93
2019-05-18T10:32:09.311Z,47.91
2019-05-18T10:37:09.420Z,47.08
2019-05-18T10:42:09.541Z,47.77
2019-05-18T10:47:45.396Z,50.69
2019-05-18T10:52:45.477Z,47.98
2019-05-18T10:57:45.933Z,48.63
2019-05-18T11:02:45.922Z,48.67
2019-05-18T11:07:52.256Z,47.66
2019-05-18T11:12:52.724Z,46.87
2019-05-18T11:17:53.004Z,46.82
2019-05-18T11:22:53.208Z,45.93
2019-05-18T11:27:53.258Z,45.56
2019-05-18T11:32:53.298Z,48.03
2019-05-18T11:37:53.338Z,46.99
2019-05-18T11:42:53.478Z,45.55
2019-05-18T11:47:53.626Z,42.61
2019-05-18T11:52:53.598Z,44.56
2019-05-18T11:57:53.713Z,45.31
2019-05-18T12:02:59.945Z,45.95
2019-05-18T12:08:00.062Z,45.07
2019-05-18T12:13:00.984Z,42.91
2019-05-18T12:18:01.009Z,39.84
2019-05-18T12:23:01.042Z,39.57
2019-05-18T12:28:01.180Z,40.71
2019-05-18T12:33:01.506Z,40.01
2019-05-18T12:38:01.323Z,40.82
2019-05-18T12:43:01.415Z,40.58
2019-05-18T12:48:01.436Z,40.71
2019-05-18T12:53:01.556Z,43.05
2019-05-18T12:58:09.894Z,42.49
2019-05-18T13:03:11.925Z,42.57
2019-05-18T13:08:12.045Z,43.17
2019-05-18T13:13:12.260Z,44.75
2019-05-18T13:18:12.253Z,43.16
2019-05-18T13:23:12.277Z,38.82
2019-05-18T13:28:12.317Z,35.98
2019-05-18T13:33:12.434Z,36.56
2019-05-18T13:38:12.446Z,34.71
2019-05-18T13:43:13.053Z,33.78
2019-05-18T13:48:13.378Z,33.83
2019-05-18T13:53:19.685Z,34.44
2019-05-18T13:58:19.722Z,34.86
2019-05-18T14:03:19.840Z,35.28
2019-05-18T14:08:20.059Z,42.32
2019-05-18T14:13:19.968Z,43.87
2019-05-18T14:18:20.007Z,44.63
2019-05-18T14:23:20.047Z,44.93
2019-05-18T14:28:20.172Z,45.29
2019-05-18T14:33:20.210Z,46.85
2019-05-18T14:38:20.563Z,46.96
2019-05-18T14:43:20.555Z,47.63
2019-05-18T14:48:24.836Z,47.01
2019-05-18T14:53:25.270Z,47.5
2019-05-18T14:58:25.768Z,47.52
2019-05-18T15:03:25.806Z,47.42
2019-05-18T15:08:25.922Z,47.51
2019-05-18T15:13:25.934Z,48.63
2019-05-18T15:18:26.035Z,48.79
2019-05-18T15:23:26.072Z,49.53
2019-05-18T15:28:26.182Z,49.74
2019-05-18T15:33:26.287Z,49.68
2019-05-18T15:38:26.322Z,48.63
2019-05-18T15:43:33.046Z,47.45
2019-05-18T15:48:33.421Z,47.55
2019-05-18T15:53:33.433Z,47.27
2019-05-18T15:58:33.526Z,47.74
2019-05-18T16:03:33.562Z,47.45
2019-05-18T16:08:33.599Z,46.17
2019-05-18T16:13:33.748Z,45.95
2019-05-18T16:18:33.837Z,45.51
2019-05-18T16:23:33.870Z,47.26
2019-05-18T16:28:34.143Z,47.55
2019-05-18T16:33:34.258Z,49.66
2019-05-18T16:38:40.532Z,50.06
2019-05-18T16:43:40.570Z,50.46
2019-05-18T16:48:41.413Z,49.57
2019-05-18T16:53:41.450Z,50.19
2019-05-18T16:58:41.601Z,51.45
2019-05-18T17:03:41.675Z,51.71
2019-05-18T17:08:41.861Z,49.37
2019-05-18T17:13:41.864Z,52.17
2019-05-18T17:18:42.634Z,51.14
2019-05-18T17:23:41.965Z,50.88
2019-05-18T17:28:42.001Z,50.92
2019-05-18T17:33:48.337Z,50.87
2019-05-18T17:38:48.868Z,51.12
2019-05-18T17:43:49.241Z,51.64
2019-05-18T17:48:49.279Z,51.51
2019-05-18T17:53:49.403Z,51.23
2019-05-18T17:58:49.388Z,51.19
2019-05-18T18:03:49.491Z,51.66
2019-05-18T18:08:49.529Z,51.56
2019-05-18T18:13:49.645Z,52.29
2019-05-18T18:18:49.697Z,52.61
2019-05-18T18:23:55.348Z,52.7
2019-05-18T18:28:56.177Z,52.22
2019-05-18T18:33:56.845Z,52.7
2019-05-18T18:38:56.853Z,52.97
2019-05-18T18:43:56.889Z,53.19
2019-05-18T18:48:57.010Z,52.32
2019-05-18T18:53:57.046Z,52.77
2019-05-18T18:58:57.159Z,53.69
2019-05-18T19:03:57.195Z,53.51
2019-05-18T19:08:57.235Z,53.93
2019-05-18T19:13:57.420Z,53.38
2019-05-18T19:18:57.437Z,53.59
2019-05-18T19:24:03.753Z,52.72
2019-05-18T19:29:03.944Z,53.89
2019-05-18T19:34:03.941Z,53.65
2019-05-18T19:39:04.544Z,53.08
2019-05-18T19:44:04.667Z,53.64
2019-05-18T19:49:04.702Z,54.04
2019-05-18T19:54:04.854Z,53.91
2019-05-18T19:59:04.869Z,55.17
2019-05-18T20:04:04.907Z,55.35
2019-05-18T20:09:05.059Z,56.57
2019-05-18T20:14:05.092Z,56.22
2019-05-18T20:19:11.954Z,56.35
2019-05-18T20:24:11.976Z,56.17
2019-05-18T20:29:12.690Z,57.02
2019-05-18T20:34:12.714Z,56.78
2019-05-18T20:39:12.853Z,57.09
2019-05-18T20:44:12.856Z,57.41
2019-05-18T20:49:12.971Z,57.39
2019-05-18T20:54:13.031Z,57.6
2019-05-18T20:59:13.071Z,57.45
2019-05-18T21:04:13.109Z,57.99
2019-05-18T21:09:13.163Z,59.65
2019-05-18T21:14:19.542Z,59.96
2019-05-18T21:19:19.774Z,59.92
2019-05-18T21:24:20.380Z,60.85
2019-05-18T21:29:20.498Z,59.6
2019-05-18T21:34:20.617Z,59.97
2019-05-18T21:39:20.556Z,60.39
2019-05-18T21:44:20.592Z,62.58
2019-05-18T21:49:21.945Z,61.98
2019-05-18T21:54:22.004Z,62.29
2019-05-18T21:59:22.036Z,61.23
2019-05-18T22:04:22.151Z,61.68
2019-05-18T22:09:28.754Z,62.56
2019-05-18T22:14:28.956Z,63.44
2019-05-18T22:19:29.146Z,61.28
2019-05-18T22:24:29.138Z,63.04
2019-05-18T22:29:29.250Z,63.46
2019-05-18T22:34:29.274Z,62.7
2019-05-18T22:39:29.890Z,62.96
2019-05-18T22:44:30.318Z,62.86
2019-05-18T22:49:30.334Z,62.47
2019-05-18T22:54:30.571Z,61.72
2019-05-18T22:59:30.554Z,62.26
2019-05-18T23:04:37.136Z,61.89
2019-05-18T23:09:37.374Z,61.12
2019-05-18T23:14:37.646Z,61.74
2019-05-18T23:19:38.170Z,60.95
2019-05-18T23:24:37.763Z,61.84
2019-05-18T23:29:37.956Z,62.26
2019-05-18T23:34:37.882Z,63.24
2019-05-18T23:39:37.916Z,63.26
2019-05-18T23:44:37.954Z,63.11
2019-05-18T23:49:38.131Z,62.94
2019-05-18T23:54:38.148Z,62.39
2019-05-18T23:59:57.832Z,62.92
